createdAt,value
2023-04-24T00:00:06.887Z,99683.81
2023-04-24T00:02:35.149Z,99675.13
2023-04-24T00:05:03.254Z,99675.09
2023-04-24T00:07:31.122Z,99667.88
2023-04-24T00:09:58.705Z,99669.47
2023-04-24T00:12:27.710Z,99665.56
2023-04-24T00:14:55.914Z,99662.88
2023-04-24T00:17:23.027Z,99650.19
2023-04-24T00:19:59.184Z,99652.97
2023-04-24T00:22:27.502Z,99654.03
2023-04-24T00:24:55.459Z,99653.06
2023-04-24T00:27:22.490Z,99649.41
2023-04-24T00:29:50.310Z,99637.56
2023-04-24T00:32:19.993Z,99642.84
2023-04-24T00:34:47.146Z,99639.03
2023-04-24T00:37:14.162Z,99629.94
2023-04-24T00:39:44.569Z,99623.25
2023-04-24T00:42:14.511Z,99626.75
2023-04-24T00:44:50.736Z,99618.09
2023-04-24T00:47:22.510Z,99622.31
2023-04-24T00:49:49.629Z,99617.94
2023-04-24T00:52:18.617Z,99617.41
2023-04-24T00:54:46.391Z,99612.78
2023-04-24T00:57:16.264Z,99613.06
2023-04-24T00:59:49.225Z,99606.09
2023-04-24T01:02:16.685Z,99600.84
2023-04-24T01:04:44.478Z,99600.22
2023-04-24T01:07:12.414Z,99594.06
2023-04-24T01:09:43.289Z,99589.34
2023-04-24T01:12:11.176Z,99590.50
2023-04-24T01:14:39.370Z,99592.81
2023-04-24T01:17:06.824Z,99595.16
2023-04-24T01:19:33.966Z,99584.84
2023-04-24T01:22:04.915Z,99585.19
2023-04-24T01:24:32.380Z,99579.06
2023-04-24T01:26:59.645Z,99585.22
2023-04-24T01:29:26.959Z,99589.97
2023-04-24T01:31:59.570Z,99596.50
2023-04-24T01:34:27.665Z,99595.53
2023-04-24T01:36:57.823Z,99599.34
2023-04-24T01:39:26.585Z,99603.16
2023-04-24T01:41:54.613Z,99592.16
2023-04-24T01:44:22.810Z,99591.94
2023-04-24T01:46:50.277Z,99594.16
2023-04-24T01:49:17.618Z,99583.06
2023-04-24T01:51:44.764Z,99586.59
2023-04-24T01:54:11.983Z,99576.13
2023-04-24T01:56:44.759Z,99566.47
2023-04-24T01:59:12.924Z,99568.09
2023-04-24T02:01:40.668Z,99566.16
2023-04-24T02:04:09.055Z,99568.78
2023-04-24T02:06:36.609Z,99554.78
2023-04-24T02:09:06.583Z,99549.91
2023-04-24T02:11:35.717Z,99542.59
2023-04-24T02:14:02.751Z,99546.75
2023-04-24T02:16:34.110Z,99542.47
2023-04-24T02:19:01.319Z,99555.50
2023-04-24T02:21:28.910Z,99556.44
2023-04-24T02:23:56.442Z,99556.25
2023-04-24T02:26:23.750Z,99565.19
2023-04-24T02:28:50.876Z,99548.59
2023-04-24T02:31:17.938Z,99545.63
2023-04-24T02:33:44.991Z,99538.09
2023-04-24T02:36:12.092Z,99536.06
2023-04-24T02:38:39.179Z,99537.25
2023-04-24T02:41:07.310Z,99539.06
2023-04-24T02:43:34.700Z,99541.66
2023-04-24T02:46:01.917Z,99543.41
2023-04-24T02:48:29.066Z,99540.41
2023-04-24T02:50:56.218Z,99541.34
2023-04-24T02:53:24.301Z,99545.56
2023-04-24T02:55:51.406Z,99537.03
2023-04-24T02:58:20.934Z,99541.03
2023-04-24T03:00:48.466Z,99540.38
2023-04-24T03:03:16.282Z,99541.19
2023-04-24T03:05:43.552Z,99532.16
2023-04-24T03:08:11.399Z,99536.13
2023-04-24T03:10:38.552Z,99531.84
2023-04-24T03:13:11.189Z,99530.38
2023-04-24T03:15:38.271Z,99540.16
2023-04-24T03:18:05.543Z,99532.59
2023-04-24T03:20:32.939Z,99539.13
2023-04-24T03:23:00.026Z,99542.34
2023-04-24T03:25:27.089Z,99543.31
2023-04-24T03:27:55.683Z,99551.53
2023-04-24T03:30:22.854Z,99547.22
2023-04-24T03:32:49.933Z,99555.63
2023-04-24T03:35:17.074Z,99554.63
2023-04-24T03:37:44.126Z,99552.28
2023-04-24T03:40:11.427Z,99551.00
2023-04-24T03:42:39.442Z,99546.22
2023-04-24T03:45:08.134Z,99545.97
2023-04-24T03:47:35.192Z,99543.00
2023-04-24T03:50:03.048Z,99540.69
2023-04-24T03:52:30.175Z,99542.28
2023-04-24T03:54:57.231Z,99541.69
2023-04-24T03:57:24.443Z,99553.84
2023-04-24T03:59:52.417Z,99553.50
2023-04-24T04:02:19.575Z,99555.56
2023-04-24T04:04:46.919Z,99550.34
2023-04-24T04:07:14.668Z,99551.81
2023-04-24T04:09:42.062Z,99541.13
2023-04-24T04:12:09.331Z,99533.75
2023-04-24T04:14:36.388Z,99536.03
2023-04-24T04:17:03.507Z,99538.03
2023-04-24T04:19:30.667Z,99534.72
2023-04-24T04:21:58.375Z,99532.81
2023-04-24T04:24:25.562Z,99530.13
2023-04-24T04:26:53.135Z,99527.53
2023-04-24T04:29:20.436Z,99533.78
2023-04-24T04:31:47.541Z,99532.97
2023-04-24T04:34:15.187Z,99534.97
2023-04-24T04:36:51.970Z,99536.72
2023-04-24T04:39:19.594Z,99528.97
2023-04-24T04:41:49.949Z,99534.97
2023-04-24T04:44:17.341Z,99542.53
2023-04-24T04:46:45.150Z,99540.81
2023-04-24T04:49:12.522Z,99542.72
2023-04-24T04:51:41.227Z,99529.78
2023-04-24T04:54:09.969Z,99543.41
2023-04-24T04:56:37.132Z,99546.25
2023-04-24T04:59:12.751Z,99550.47
2023-04-24T05:01:45.852Z,99560.81
2023-04-24T05:04:13.059Z,99559.97
2023-04-24T05:06:40.407Z,99564.34
2023-04-24T05:09:08.440Z,99558.28
2023-04-24T05:11:38.431Z,99560.25
2023-04-24T05:14:05.597Z,99558.91
2023-04-24T05:16:35.131Z,99560.06
2023-04-24T05:19:02.391Z,99559.03
2023-04-24T05:21:30.702Z,99563.56
2023-04-24T05:23:57.897Z,99552.78
2023-04-24T05:26:25.616Z,99557.06
2023-04-24T05:28:52.645Z,99558.84
2023-04-24T05:31:19.786Z,99566.56
2023-04-24T05:33:46.917Z,99567.66
2023-04-24T05:36:14.207Z,99557.78
2023-04-24T05:38:41.474Z,99566.31
2023-04-24T05:41:08.636Z,99558.56
2023-04-24T05:43:35.816Z,99567.59
2023-04-24T05:46:02.986Z,99567.16
2023-04-24T05:48:30.145Z,99565.44
2023-04-24T05:51:00.608Z,99567.28
2023-04-24T05:53:27.849Z,99560.34
2023-04-24T05:55:54.952Z,99571.06
2023-04-24T05:58:22.016Z,99571.06
2023-04-24T06:00:51.447Z,99572.28
2023-04-24T06:03:21.859Z,99568.31
2023-04-24T06:05:51.289Z,99569.00
2023-04-24T06:08:18.837Z,99573.38
2023-04-24T06:10:46.434Z,99578.47
2023-04-24T06:13:13.647Z,99581.25
2023-04-24T06:15:44.340Z,99579.91
2023-04-24T06:18:11.503Z,99578.44
2023-04-24T06:20:38.861Z,99572.72
2023-04-24T06:23:06.132Z,99576.47
2023-04-24T06:25:33.511Z,99583.66
2023-04-24T06:28:00.856Z,99583.41
2023-04-24T06:30:30.360Z,99591.41
2023-04-24T06:33:02.995Z,99588.44
2023-04-24T06:35:38.974Z,99591.50
2023-04-24T06:38:06.364Z,99579.63
2023-04-24T06:40:34.897Z,99576.88
2023-04-24T06:43:05.784Z,99582.66
2023-04-24T06:45:35.477Z,99582.97
2023-04-24T06:48:02.853Z,99592.88
2023-04-24T06:50:29.914Z,99581.19
2023-04-24T06:52:57.412Z,99585.06
2023-04-24T06:55:24.953Z,99590.41
2023-04-24T06:57:51.974Z,99593.03
2023-04-24T07:00:19.659Z,99599.69
2023-04-24T07:02:46.791Z,99587.34
2023-04-24T07:05:14.043Z,99589.63
2023-04-24T07:07:41.294Z,99586.16
2023-04-24T07:10:09.687Z,99578.19
2023-04-24T07:12:37.594Z,99578.94
2023-04-24T07:15:06.894Z,99576.06
2023-04-24T07:17:34.350Z,99580.81
2023-04-24T07:20:01.764Z,99573.84
2023-04-24T07:22:28.958Z,99580.75
2023-04-24T07:24:56.185Z,99575.72
2023-04-24T07:27:23.409Z,99582.25
2023-04-24T07:29:50.464Z,99577.94
2023-04-24T07:32:17.579Z,99581.22
2023-04-24T07:34:44.768Z,99587.09
2023-04-24T07:37:12.067Z,99580.53
2023-04-24T07:39:39.294Z,99581.28
2023-04-24T07:42:06.484Z,99575.75
2023-04-24T07:44:33.641Z,99583.97
2023-04-24T07:47:00.869Z,99585.41
2023-04-24T07:49:28.820Z,99586.03
2023-04-24T07:51:56.019Z,99582.28
2023-04-24T07:54:23.129Z,99586.56
2023-04-24T07:56:50.620Z,99577.19
2023-04-24T07:59:17.754Z,99578.78
2023-04-24T08:01:51.055Z,99584.75
2023-04-24T08:04:19.064Z,99574.44
2023-04-24T08:06:46.317Z,99575.47
2023-04-24T08:09:14.130Z,99579.06
2023-04-24T08:11:41.374Z,99581.53
2023-04-24T08:14:08.484Z,99576.19
2023-04-24T08:16:36.462Z,99571.28
2023-04-24T08:19:03.745Z,99571.13
2023-04-24T08:21:31.299Z,99562.28
2023-04-24T08:23:58.448Z,99571.44
2023-04-24T08:26:25.952Z,99570.97
2023-04-24T08:28:54.443Z,99578.84
2023-04-24T08:31:21.919Z,99578.66
2023-04-24T08:33:49.116Z,99571.06
2023-04-24T08:36:16.411Z,99569.78
2023-04-24T08:38:44.083Z,99572.31
2023-04-24T08:41:12.110Z,99572.19
2023-04-24T08:43:41.669Z,99575.25
2023-04-24T08:46:12.117Z,99573.81
2023-04-24T08:48:41.097Z,99567.94
2023-04-24T08:51:10.363Z,99566.38
2023-04-24T08:53:41.035Z,99568.47
2023-04-24T08:56:08.347Z,99564.81
2023-04-24T08:58:36.740Z,99565.38
2023-04-24T09:01:08.735Z,99572.81
2023-04-24T09:03:37.096Z,99580.78
2023-04-24T09:06:04.887Z,99571.84
2023-04-24T09:08:33.729Z,99575.16
2023-04-24T09:11:03.514Z,99586.44
2023-04-24T09:13:31.632Z,99581.19
2023-04-24T09:15:58.710Z,99580.19
2023-04-24T09:18:27.404Z,99577.16
2023-04-24T09:21:06.112Z,99579.53
2023-04-24T09:23:34.137Z,99574.72
2023-04-24T09:26:05.998Z,99577.97
2023-04-24T09:28:39.960Z,99585.13
2023-04-24T09:31:22.425Z,99587.41
2023-04-24T09:34:05.732Z,99586.44
2023-04-24T09:36:49.766Z,99591.50
2023-04-24T09:39:21.193Z,99582.09
2023-04-24T09:42:01.041Z,99582.53
2023-04-24T09:44:29.508Z,99577.47
2023-04-24T09:47:01.607Z,99587.53
2023-04-24T09:49:34.233Z,99583.41
2023-04-24T09:52:12.921Z,99578.56
2023-04-24T09:54:43.394Z,99589.09
2023-04-24T09:57:10.669Z,99589.72
2023-04-24T09:59:46.830Z,99587.63
2023-04-24T10:02:21.700Z,99577.97
2023-04-24T10:05:00.646Z,99583.53
2023-04-24T10:07:28.346Z,99585.97
2023-04-24T10:09:56.616Z,99582.03
2023-04-24T10:12:26.197Z,99581.03
2023-04-24T10:14:54.176Z,99590.16
2023-04-24T10:17:22.402Z,99583.63
2023-04-24T10:19:50.142Z,99585.25
2023-04-24T10:22:18.515Z,99584.47
2023-04-24T10:24:46.259Z,99575.00
2023-04-24T10:27:16.509Z,99578.88
2023-04-24T10:29:46.556Z,99580.97
2023-04-24T10:32:13.610Z,99587.19
2023-04-24T10:34:41.472Z,99588.22
2023-04-24T10:37:08.847Z,99582.69
2023-04-24T10:39:38.321Z,99585.53
2023-04-24T10:42:16.938Z,99587.41
2023-04-24T10:44:44.278Z,99573.97
2023-04-24T10:47:15.449Z,99575.78
2023-04-24T10:49:46.402Z,99569.34
2023-04-24T10:52:17.181Z,99571.94
2023-04-24T10:54:51.255Z,99570.53
2023-04-24T10:57:33.734Z,99570.16
2023-04-24T11:00:22.967Z,99573.31
2023-04-24T11:02:54.026Z,99569.78
2023-04-24T11:05:53.181Z,99581.06
2023-04-24T11:08:46.830Z,99579.47
2023-04-24T11:11:19.118Z,99574.13
2023-04-24T11:14:11.770Z,99582.03
2023-04-24T11:16:53.429Z,99576.75
2023-04-24T11:19:26.382Z,99568.00
2023-04-24T11:22:14.943Z,99572.09
2023-04-24T11:24:56.555Z,99564.56
2023-04-24T11:27:25.338Z,99559.91
2023-04-24T11:29:58.726Z,99566.06
2023-04-24T11:32:45.612Z,99568.22
2023-04-24T11:35:20.184Z,99568.22
2023-04-24T11:38:07.959Z,99561.88
2023-04-24T11:40:39.264Z,99558.81
2023-04-24T11:43:08.392Z,99566.47
2023-04-24T11:45:38.614Z,99554.88
2023-04-24T11:48:05.765Z,99564.78
2023-04-24T11:50:38.867Z,99563.22
2023-04-24T11:53:05.910Z,99560.09
2023-04-24T11:55:33.129Z,99568.34
2023-04-24T11:58:04.314Z,99571.88
2023-04-24T12:00:36.484Z,99586.44
2023-04-24T12:03:13.286Z,99599.34
2023-04-24T12:05:41.552Z,99599.34
2023-04-24T12:08:11.600Z,99607.25
2023-04-24T12:11:40.352Z,99601.97
2023-04-24T12:14:56.352Z,99596.91
2023-04-24T12:17:32.998Z,99592.50
2023-04-24T12:20:09.722Z,99584.94
2023-04-24T12:23:01.681Z,99579.84
2023-04-24T12:25:35.822Z,99574.00
2023-04-24T12:28:16.698Z,99576.44
2023-04-24T12:30:54.963Z,99574.59
2023-04-24T12:33:23.130Z,99561.53
2023-04-24T12:35:54.905Z,99558.31
2023-04-24T12:38:30.652Z,99547.69
2023-04-24T12:41:10.555Z,99553.72
2023-04-24T12:43:40.499Z,99547.16
2023-04-24T12:46:08.043Z,99543.91
2023-04-24T12:48:35.184Z,99547.00
2023-04-24T12:51:02.705Z,99537.16
2023-04-24T12:53:32.535Z,99531.84
2023-04-24T12:55:59.613Z,99528.81
2023-04-24T12:58:40.722Z,99524.97
2023-04-24T13:01:07.818Z,99522.28
2023-04-24T13:03:35.136Z,99510.09
2023-04-24T13:06:02.806Z,99519.06
2023-04-24T13:08:29.916Z,99503.91
2023-04-24T13:10:59.646Z,99510.47
2023-04-24T13:13:26.755Z,99509.72
2023-04-24T13:15:53.881Z,99518.69
2023-04-24T13:18:21.063Z,99521.59
2023-04-24T13:20:51.041Z,99522.44
2023-04-24T13:23:24.138Z,99526.16
2023-04-24T13:25:51.223Z,99526.03
2023-04-24T13:28:18.277Z,99520.28
2023-04-24T13:30:45.836Z,99515.97
2023-04-24T13:33:13.112Z,99513.59
2023-04-24T13:35:40.316Z,99519.22
2023-04-24T13:38:09.720Z,99512.88
2023-04-24T13:40:36.825Z,99510.47
2023-04-24T13:43:04.444Z,99512.19
2023-04-24T13:45:31.540Z,99509.88
2023-04-24T13:47:58.640Z,99509.31
2023-04-24T13:50:26.621Z,99515.84
2023-04-24T13:52:53.915Z,99514.50
2023-04-24T13:55:21.423Z,99516.66
2023-04-24T13:57:48.589Z,99525.88
2023-04-24T14:00:18.919Z,99519.59
2023-04-24T14:02:47.134Z,99521.75
2023-04-24T14:05:16.167Z,99518.03
2023-04-24T14:07:43.350Z,99519.09
2023-04-24T14:10:11.281Z,99525.63
2023-04-24T14:12:38.410Z,99508.84
2023-04-24T14:15:07.081Z,99514.28
2023-04-24T14:17:35.651Z,99509.28
2023-04-24T14:20:04.586Z,99511.31
2023-04-24T14:22:31.714Z,99505.81
2023-04-24T14:24:58.986Z,99514.91
2023-04-24T14:27:29.738Z,99516.56
2023-04-24T14:29:56.940Z,99507.03
2023-04-24T14:32:24.314Z,99507.66
2023-04-24T14:34:51.620Z,99512.56
2023-04-24T14:37:18.681Z,99518.94
2023-04-24T14:39:56.135Z,99512.69
2023-04-24T14:42:30.661Z,99504.91
2023-04-24T14:44:57.723Z,99509.78
2023-04-24T14:47:24.971Z,99506.63
2023-04-24T14:49:52.259Z,99513.47
2023-04-24T14:52:21.025Z,99516.16
2023-04-24T14:54:48.149Z,99507.81
2023-04-24T14:57:16.524Z,99519.06
2023-04-24T14:59:43.936Z,99508.22
2023-04-24T15:02:16.462Z,99507.00
2023-04-24T15:04:44.868Z,99508.41
2023-04-24T15:07:12.126Z,99505.38
2023-04-24T15:09:39.340Z,99515.72
2023-04-24T15:12:06.563Z,99517.44
2023-04-24T15:14:36.118Z,99526.56
2023-04-24T15:17:03.742Z,99526.22
2023-04-24T15:19:32.828Z,99526.41
2023-04-24T15:22:00.108Z,99526.25
2023-04-24T15:24:27.672Z,99531.16
2023-04-24T15:26:57.456Z,99523.59
2023-04-24T15:29:28.158Z,99530.75
2023-04-24T15:31:55.317Z,99531.66
2023-04-24T15:34:22.419Z,99535.06
2023-04-24T15:36:49.886Z,99534.75
2023-04-24T15:39:26.879Z,99534.97
2023-04-24T15:41:57.771Z,99541.19
2023-04-24T15:44:27.198Z,99540.66
2023-04-24T15:46:54.439Z,99542.97
2023-04-24T15:49:22.169Z,99543.53
2023-04-24T15:51:49.174Z,99551.09
2023-04-24T15:54:16.783Z,99555.47
2023-04-24T15:56:45.316Z,99560.75
2023-04-24T15:59:12.686Z,99553.75
2023-04-24T16:01:40.486Z,99556.94
2023-04-24T16:04:07.780Z,99561.28
2023-04-24T16:06:35.388Z,99567.56
2023-04-24T16:09:03.699Z,99564.00
2023-04-24T16:11:32.711Z,99568.06
2023-04-24T16:13:59.877Z,99556.31
2023-04-24T16:16:27.879Z,99566.78
2023-04-24T16:18:57.916Z,99567.56
2023-04-24T16:21:28.220Z,99567.56
2023-04-24T16:23:55.356Z,99574.94
2023-04-24T16:26:23.665Z,99571.16
2023-04-24T16:28:51.075Z,99569.09
2023-04-24T16:31:18.475Z,99576.31
2023-04-24T16:33:45.766Z,99573.78
2023-04-24T16:36:13.345Z,99577.34
2023-04-24T16:38:40.675Z,99579.13
2023-04-24T16:41:07.752Z,99578.78
2023-04-24T16:43:35.977Z,99587.53
2023-04-24T16:46:03.328Z,99585.69
2023-04-24T16:48:33.198Z,99580.56
2023-04-24T16:51:00.376Z,99583.56
2023-04-24T16:53:27.645Z,99589.69
2023-04-24T16:55:54.778Z,99600.78
2023-04-24T16:58:21.795Z,99599.91
2023-04-24T17:00:48.940Z,99612.28
2023-04-24T17:03:16.156Z,99617.53
2023-04-24T17:05:44.060Z,99622.00
2023-04-24T17:08:11.097Z,99628.19
2023-04-24T17:10:38.228Z,99636.75
2023-04-24T17:13:05.612Z,99635.13
2023-04-24T17:15:32.749Z,99640.41
2023-04-24T17:18:00.339Z,99643.31
2023-04-24T17:20:29.768Z,99651.94
2023-04-24T17:22:57.900Z,99644.50
2023-04-24T17:25:25.078Z,99657.38
2023-04-24T17:27:53.968Z,99654.78
2023-04-24T17:30:21.263Z,99663.88
2023-04-24T17:32:48.438Z,99663.16
2023-04-24T17:35:33.511Z,99664.72
2023-04-24T17:38:00.698Z,99674.69
2023-04-24T17:40:30.497Z,99679.75
2023-04-24T17:42:57.483Z,99678.06
2023-04-24T17:45:24.680Z,99688.34
2023-04-24T17:47:52.088Z,99685.84
2023-04-24T17:50:19.274Z,99694.53
2023-04-24T17:52:46.357Z,99700.28
2023-04-24T17:55:13.692Z,99709.69
2023-04-24T17:57:41.508Z,99705.56
2023-04-24T18:00:09.616Z,99712.50
2023-04-24T18:02:36.865Z,99714.00
2023-04-24T18:05:04.346Z,99712.81
2023-04-24T18:07:31.385Z,99713.16
2023-04-24T18:09:58.719Z,99721.56
2023-04-24T18:12:26.065Z,99719.88
2023-04-24T18:15:02.710Z,99722.50
2023-04-24T18:17:39.896Z,99737.06
2023-04-24T18:20:07.990Z,99737.38
2023-04-24T18:22:35.257Z,99744.28
2023-04-24T18:25:02.414Z,99742.53
2023-04-24T18:27:31.816Z,99758.13
2023-04-24T18:30:00.786Z,99767.50
2023-04-24T18:32:27.944Z,99772.44
2023-04-24T18:34:56.687Z,99781.44
2023-04-24T18:37:23.920Z,99779.53
2023-04-24T18:39:51.048Z,99777.09
2023-04-24T18:42:18.549Z,99789.97
2023-04-24T18:44:45.793Z,99793.69
2023-04-24T18:47:13.059Z,99825.84
2023-04-24T18:49:40.270Z,99810.75
2023-04-24T18:52:07.332Z,99818.84
2023-04-24T18:54:34.899Z,99818.59
2023-04-24T18:57:01.932Z,99827.19
2023-04-24T18:59:29.075Z,99833.97
2023-04-24T19:01:57.217Z,99837.41
2023-04-24T19:04:24.335Z,99837.78
2023-04-24T19:06:51.440Z,99845.00
2023-04-24T19:09:18.488Z,99856.34
2023-04-24T19:11:45.671Z,99850.31
2023-04-24T19:14:13.495Z,99858.75
2023-04-24T19:16:41.516Z,99861.63
2023-04-24T19:19:08.790Z,99861.56
2023-04-24T19:21:36.037Z,99863.22
2023-04-24T19:24:03.634Z,99867.19
2023-04-24T19:26:31.465Z,99874.59
2023-04-24T19:28:59.071Z,99876.38
2023-04-24T19:31:26.648Z,99877.91
2023-04-24T19:33:54.216Z,99879.16
2023-04-24T19:36:21.533Z,99869.69
2023-04-24T19:38:50.636Z,99877.69
2023-04-24T19:41:18.098Z,99880.88
2023-04-24T19:43:47.142Z,99877.06
2023-04-24T19:46:15.462Z,99869.66
2023-04-24T19:48:42.531Z,99878.38
2023-04-24T19:51:09.743Z,99877.09
2023-04-24T19:53:36.812Z,99884.78
2023-04-24T19:56:03.852Z,99881.69
2023-04-24T19:58:31.075Z,99883.63
2023-04-24T20:00:58.463Z,99896.84
2023-04-24T20:03:32.876Z,99899.78
2023-04-24T20:06:01.497Z,99890.94
2023-04-24T20:08:28.957Z,99894.94
2023-04-24T20:10:57.869Z,99893.53
2023-04-24T20:13:28.347Z,99889.56
2023-04-24T20:15:55.535Z,99886.44
2023-04-24T20:18:25.734Z,99898.81
2023-04-24T20:20:56.847Z,99888.59
2023-04-24T20:23:23.929Z,99883.97
2023-04-24T20:25:57.672Z,99890.41
2023-04-24T20:28:27.248Z,99893.22
2023-04-24T20:30:54.816Z,99894.84
2023-04-24T20:33:22.533Z,99893.19
2023-04-24T20:35:52.267Z,99895.16
2023-04-24T20:38:19.460Z,99893.88
2023-04-24T20:40:57.681Z,99901.63
2023-04-24T20:43:29.288Z,99897.84
2023-04-24T20:45:58.137Z,99904.41
2023-04-24T20:48:29.017Z,99904.88
2023-04-24T20:50:56.511Z,99904.31
2023-04-24T20:53:25.821Z,99900.44
2023-04-24T20:55:53.340Z,99897.50
2023-04-24T20:58:23.813Z,99892.56
2023-04-24T21:00:52.254Z,99898.63
2023-04-24T21:03:20.201Z,99889.41
2023-04-24T21:05:47.744Z,99891.63
2023-04-24T21:08:15.031Z,99900.69
2023-04-24T21:10:42.639Z,99891.69
2023-04-24T21:13:10.043Z,99894.66
2023-04-24T21:15:37.492Z,99903.38
2023-04-24T21:18:05.589Z,99893.97
2023-04-24T21:20:32.963Z,99892.34
2023-04-24T21:23:00.190Z,99887.75
2023-04-24T21:25:28.032Z,99889.41
2023-04-24T21:27:55.975Z,99888.13
2023-04-24T21:30:23.200Z,99889.59
2023-04-24T21:32:52.038Z,99887.28
2023-04-24T21:35:19.396Z,99893.81
2023-04-24T21:37:47.001Z,99887.69
2023-04-24T21:40:15.931Z,99888.03
2023-04-24T21:42:43.446Z,99891.34
2023-04-24T21:45:13.733Z,99885.53
2023-04-24T21:47:40.891Z,99890.19
2023-04-24T21:50:09.262Z,99879.28
2023-04-24T21:52:36.381Z,99888.69
2023-04-24T21:55:03.627Z,99889.16
2023-04-24T21:57:30.798Z,99883.97
2023-04-24T21:59:57.925Z,99888.06
2023-04-24T22:02:25.134Z,99880.81
2023-04-24T22:04:52.853Z,99883.72
2023-04-24T22:07:20.061Z,99883.94
2023-04-24T22:09:47.113Z,99886.31
2023-04-24T22:12:14.157Z,99880.00
2023-04-24T22:14:41.202Z,99880.78
2023-04-24T22:17:09.537Z,99887.84
2023-04-24T22:19:36.581Z,99883.78
2023-04-24T22:22:03.862Z,99896.06
2023-04-24T22:24:31.626Z,99893.19
2023-04-24T22:26:58.631Z,99884.19
2023-04-24T22:29:26.291Z,99883.75
2023-04-24T22:31:56.353Z,99880.31
2023-04-24T22:34:23.458Z,99880.66
2023-04-24T22:36:50.611Z,99878.97
2023-04-24T22:39:20.225Z,99877.47
2023-04-24T22:41:47.525Z,99879.97
2023-04-24T22:44:14.724Z,99880.31
2023-04-24T22:46:41.804Z,99875.69
2023-04-24T22:49:09.120Z,99877.41
2023-04-24T22:51:36.185Z,99881.31
2023-04-24T22:54:05.051Z,99878.59
2023-04-24T22:56:33.558Z,99884.41
2023-04-24T22:59:00.905Z,99881.00
2023-04-24T23:01:28.063Z,99882.16
2023-04-24T23:03:55.446Z,99871.25
2023-04-24T23:06:22.651Z,99876.25
2023-04-24T23:08:49.821Z,99879.53
2023-04-24T23:11:16.882Z,99875.66
2023-04-24T23:13:44.440Z,99879.81
2023-04-24T23:16:11.467Z,99881.91
2023-04-24T23:18:38.469Z,99877.09
2023-04-24T23:21:06.038Z,99865.59
2023-04-24T23:23:33.244Z,99873.84
2023-04-24T23:26:02.877Z,99870.75
2023-04-24T23:28:29.867Z,99881.94
2023-04-24T23:30:57.132Z,99878.78
2023-04-24T23:33:24.216Z,99873.94
2023-04-24T23:35:52.548Z,99869.56
2023-04-24T23:38:19.677Z,99873.63
2023-04-24T23:40:46.785Z,99863.03
2023-04-24T23:43:13.825Z,99866.91
2023-04-24T23:45:41.033Z,99860.41
2023-04-24T23:48:08.150Z,99861.94
2023-04-24T23:50:35.376Z,99861.22
2023-04-24T23:53:02.675Z,99864.00
2023-04-24T23:55:31.271Z,99860.78
2023-04-24T23:57:58.682Z,99857.19
